createdAt,value
2023-04-06T00:01:45.665Z,25.23
2023-04-06T00:04:33.578Z,23.33
2023-04-06T00:07:21.392Z,21.65
2023-04-06T00:10:10.523Z,25.58
2023-04-06T00:12:58.735Z,24.75
2023-04-06T00:15:48.006Z,22.17
2023-04-06T00:18:35.665Z,26.88
2023-04-06T00:21:23.188Z,26.77
2023-04-06T00:24:10.615Z,27.20
2023-04-06T00:26:57.987Z,27.45
2023-04-06T00:29:46.425Z,31.05
2023-04-06T00:32:35.286Z,29.05
2023-04-06T00:35:23.353Z,27.98
2023-04-06T00:38:10.777Z,27.10
2023-04-06T00:40:58.132Z,28.77
2023-04-06T00:43:45.552Z,28.70
2023-04-06T00:46:33.145Z,27.42
2023-04-06T00:49:22.512Z,28.55
2023-04-06T00:52:10.698Z,30.08
2023-04-06T00:54:58.299Z,28.80
2023-04-06T00:57:46.172Z,31.40
2023-04-06T01:00:34.720Z,43.90
2023-04-06T01:03:23.725Z,34.95
2023-04-06T01:06:12.688Z,36.40
2023-04-06T01:09:02.614Z,31.92
2023-04-06T01:11:50.270Z,29.80
2023-04-06T01:14:40.861Z,32.60
2023-04-06T01:17:29.752Z,33.30
2023-04-06T01:20:21.932Z,32.90
2023-04-06T01:23:11.456Z,30.17
2023-04-06T01:26:05.410Z,31.60
2023-04-06T01:28:53.112Z,32.15
2023-04-06T01:31:49.745Z,31.27
2023-04-06T01:34:37.142Z,29.48
2023-04-06T01:37:27.206Z,30.92
2023-04-06T01:40:19.222Z,29.85
2023-04-06T01:43:11.251Z,32.13
2023-04-06T01:46:16.614Z,26.65
2023-04-06T01:49:06.422Z,27.83
2023-04-06T01:52:00.161Z,29.33
2023-04-06T01:54:47.932Z,28.80
2023-04-06T01:57:39.277Z,29.50
2023-04-06T02:00:35.055Z,27.98
2023-04-06T02:03:23.010Z,29.75
2023-04-06T02:06:18.196Z,29.58
2023-04-06T02:09:05.931Z,30.95
2023-04-06T02:11:53.899Z,29.58
2023-04-06T02:14:43.639Z,27.58
2023-04-06T02:17:31.351Z,28.70
2023-04-06T02:20:19.274Z,26.05
2023-04-06T02:23:06.878Z,28.92
2023-04-06T02:25:54.708Z,30.50
2023-04-06T02:28:42.302Z,26.50
2023-04-06T02:31:31.151Z,27.17
2023-04-06T02:34:19.515Z,27.83
2023-04-06T02:37:11.606Z,27.85
2023-04-06T02:39:59.287Z,27.48
2023-04-06T02:42:47.130Z,26.83
2023-04-06T02:45:36.042Z,27.63
2023-04-06T02:48:25.976Z,25.38
2023-04-06T02:51:14.124Z,26.80
2023-04-06T02:54:05.516Z,24.85
2023-04-06T02:56:53.352Z,26.00
2023-04-06T02:59:42.154Z,27.15
2023-04-06T03:02:36.835Z,26.52
2023-04-06T03:05:31.769Z,26.77
2023-04-06T03:08:19.394Z,29.15
2023-04-06T03:11:07.893Z,26.10
2023-04-06T03:14:00.270Z,26.88
2023-04-06T03:16:47.789Z,24.95
2023-04-06T03:19:39.802Z,25.02
2023-04-06T03:22:29.434Z,25.40
2023-04-06T03:25:16.899Z,24.40
2023-04-06T03:28:06.451Z,25.65
2023-04-06T03:30:58.782Z,24.10
2023-04-06T03:34:18.588Z,24.95
2023-04-06T03:37:10.340Z,26.85
2023-04-06T03:40:04.579Z,25.17
2023-04-06T03:42:52.467Z,24.63
2023-04-06T03:45:40.434Z,26.00
2023-04-06T03:48:29.109Z,25.48
2023-04-06T03:51:16.807Z,26.08
2023-04-06T03:54:04.187Z,27.13
2023-04-06T03:56:53.409Z,26.77
2023-04-06T03:59:41.547Z,26.98
2023-04-06T04:02:29.396Z,25.33
2023-04-06T04:05:17.080Z,25.75
2023-04-06T04:08:04.954Z,23.98
2023-04-06T04:10:53.096Z,27.00
2023-04-06T04:13:42.288Z,25.05
2023-04-06T04:16:30.824Z,27.45
2023-04-06T04:19:18.970Z,26.02
2023-04-06T04:22:07.574Z,27.90
2023-04-06T04:24:59.147Z,26.02
2023-04-06T04:27:47.735Z,25.08
2023-04-06T04:30:37.126Z,25.55
2023-04-06T04:33:29.561Z,27.17
2023-04-06T04:36:18.957Z,26.65
2023-04-06T04:39:08.251Z,26.55
2023-04-06T04:42:00.387Z,25.90
2023-04-06T04:44:49.548Z,25.70
2023-04-06T04:47:46.994Z,24.17
2023-04-06T04:50:37.069Z,26.42
2023-04-06T04:53:25.233Z,26.00
2023-04-06T04:56:16.694Z,28.73
2023-04-06T04:59:06.581Z,28.23
2023-04-06T05:01:58.605Z,28.88
2023-04-06T05:04:57.119Z,36.38
2023-04-06T05:07:47.241Z,39.45
2023-04-06T05:10:49.155Z,38.33
2023-04-06T05:13:37.346Z,38.63
2023-04-06T05:16:31.214Z,37.85
2023-04-06T05:19:18.883Z,36.13
2023-04-06T05:22:08.894Z,39.55
2023-04-06T05:24:59.064Z,34.53
2023-04-06T05:27:46.609Z,35.28
2023-04-06T05:30:48.482Z,35.70
2023-04-06T05:33:37.161Z,33.35
2023-04-06T05:36:30.539Z,45.00
2023-04-06T05:39:19.440Z,44.42
2023-04-06T05:42:12.975Z,41.50
2023-04-06T05:45:17.951Z,49.40
2023-04-06T05:48:10.012Z,54.10
2023-04-06T05:50:57.745Z,39.13
2023-04-06T05:53:53.838Z,32.67
2023-04-06T05:56:43.144Z,32.42
2023-04-06T05:59:33.383Z,30.98
2023-04-06T06:02:21.342Z,31.05
2023-04-06T06:05:12.161Z,28.48
2023-04-06T06:08:03.372Z,29.35
2023-04-06T06:10:51.460Z,33.15
2023-04-06T06:13:44.047Z,34.63
2023-04-06T06:16:31.748Z,30.70
2023-04-06T06:19:19.789Z,30.98
2023-04-06T06:22:07.411Z,30.27
2023-04-06T06:24:58.711Z,30.40
2023-04-06T06:27:46.527Z,28.48
2023-04-06T06:30:37.542Z,29.20
2023-04-06T06:33:27.869Z,27.13
2023-04-06T06:36:17.083Z,28.02
2023-04-06T06:39:05.207Z,29.45
2023-04-06T06:41:53.246Z,30.25
2023-04-06T06:44:44.603Z,27.65
2023-04-06T06:47:33.682Z,29.23
2023-04-06T06:50:21.593Z,27.58
2023-04-06T06:53:09.277Z,27.25
2023-04-06T06:55:57.213Z,27.08
2023-04-06T06:58:45.051Z,26.52
2023-04-06T07:01:33.175Z,26.55
2023-04-06T07:04:22.264Z,22.40
2023-04-06T07:07:10.321Z,24.75
2023-04-06T07:09:58.497Z,22.35
2023-04-06T07:12:46.063Z,22.17
2023-04-06T07:15:33.749Z,21.13
2023-04-06T07:18:22.466Z,22.02
2023-04-06T07:21:12.070Z,19.50
2023-04-06T07:23:59.926Z,20.48
2023-04-06T07:26:47.668Z,19.58
2023-04-06T07:29:35.855Z,21.65
2023-04-06T07:32:23.948Z,18.92
2023-04-06T07:35:11.681Z,18.70
2023-04-06T07:38:01.021Z,19.30
2023-04-06T07:40:48.731Z,19.00
2023-04-06T07:43:36.364Z,16.60
2023-04-06T07:46:25.108Z,17.08
2023-04-06T07:49:14.396Z,16.77
2023-04-06T07:52:03.965Z,16.52
2023-04-06T07:54:53.162Z,16.10
2023-04-06T07:57:40.696Z,13.60
2023-04-06T08:00:28.192Z,14.27
2023-04-06T08:03:15.722Z,12.43
2023-04-06T08:06:03.736Z,12.52
2023-04-06T08:08:52.055Z,11.90
2023-04-06T08:11:41.495Z,8.25
2023-04-06T08:14:29.203Z,7.65
2023-04-06T08:17:16.820Z,6.75
2023-04-06T08:20:05.487Z,6.97
2023-04-06T08:22:53.736Z,7.30
2023-04-06T08:25:41.240Z,6.13
2023-04-06T08:28:30.208Z,6.95
2023-04-06T08:31:17.801Z,7.07
2023-04-06T08:34:07.168Z,7.03
2023-04-06T08:36:55.174Z,6.97
2023-04-06T08:39:42.843Z,7.13
2023-04-06T08:42:34.182Z,6.78
2023-04-06T08:45:23.223Z,7.35
2023-04-06T08:48:11.350Z,7.40
2023-04-06T08:50:59.182Z,7.15
2023-04-06T08:53:47.449Z,6.88
2023-04-06T08:56:35.901Z,7.22
2023-04-06T08:59:23.417Z,7.60
2023-04-06T09:02:18.468Z,7.50
2023-04-06T09:05:08.753Z,8.65
2023-04-06T09:07:56.689Z,8.73
2023-04-06T09:10:44.170Z,8.00
2023-04-06T09:13:31.979Z,7.65
2023-04-06T09:16:20.417Z,9.00
2023-04-06T09:19:09.461Z,7.45
2023-04-06T09:22:04.540Z,8.50
2023-04-06T09:24:53.634Z,7.60
2023-04-06T09:27:41.335Z,7.25
2023-04-06T09:30:28.797Z,7.03
2023-04-06T09:33:25.081Z,7.32
2023-04-06T09:36:16.506Z,7.43
2023-04-06T09:39:05.990Z,7.13
2023-04-06T09:41:55.516Z,8.00
2023-04-06T09:44:43.039Z,7.07
2023-04-06T09:47:32.323Z,6.43
2023-04-06T09:50:21.913Z,5.60
2023-04-06T09:53:10.793Z,4.63
2023-04-06T09:56:02.203Z,4.25
2023-04-06T09:58:51.797Z,5.05
2023-04-06T10:01:40.549Z,5.03
2023-04-06T10:04:35.819Z,5.40
2023-04-06T10:07:24.251Z,5.13
2023-04-06T10:10:16.454Z,5.00
2023-04-06T10:13:04.562Z,6.15
2023-04-06T10:15:53.235Z,6.18
2023-04-06T10:18:44.883Z,5.72
2023-04-06T10:21:34.305Z,5.57
2023-04-06T10:24:22.116Z,6.15
2023-04-06T10:27:12.248Z,5.95
2023-04-06T10:30:05.065Z,7.05
2023-04-06T10:32:52.713Z,6.25
2023-04-06T10:35:40.646Z,7.68
2023-04-06T10:38:41.168Z,7.47
2023-04-06T10:41:35.536Z,6.32
2023-04-06T10:44:25.694Z,6.68
2023-04-06T10:47:19.956Z,7.75
2023-04-06T10:50:08.389Z,6.75
2023-04-06T10:53:03.353Z,6.05
2023-04-06T10:55:52.617Z,6.60
2023-04-06T10:58:40.836Z,7.07
2023-04-06T11:01:30.345Z,6.95
2023-04-06T11:04:19.451Z,6.90
2023-04-06T11:07:07.247Z,7.53
2023-04-06T11:10:12.704Z,7.15
2023-04-06T11:13:01.946Z,6.38
2023-04-06T11:15:50.215Z,6.85
2023-04-06T11:18:39.398Z,6.35
2023-04-06T11:21:40.314Z,7.60
2023-04-06T11:24:28.555Z,7.47
2023-04-06T11:27:17.247Z,8.38
2023-04-06T11:30:07.034Z,7.43
2023-04-06T11:32:55.037Z,8.85
2023-04-06T11:35:43.895Z,8.85
2023-04-06T11:38:32.471Z,8.23
2023-04-06T11:41:20.835Z,7.32
2023-04-06T11:44:08.532Z,9.05
2023-04-06T11:46:56.586Z,8.45
2023-04-06T11:49:46.550Z,8.02
2023-04-06T11:52:35.599Z,8.30
2023-04-06T11:55:23.350Z,7.70
2023-04-06T11:58:11.093Z,7.80
2023-04-06T12:01:06.006Z,7.65
2023-04-06T12:03:54.181Z,8.40
2023-04-06T12:06:41.911Z,6.88
2023-04-06T12:09:31.447Z,7.70
2023-04-06T12:12:19.130Z,7.93
2023-04-06T12:15:07.683Z,7.80
2023-04-06T12:17:55.127Z,7.78
2023-04-06T12:20:42.995Z,7.20
2023-04-06T12:23:30.412Z,8.57
2023-04-06T12:26:19.437Z,8.00
2023-04-06T12:29:08.213Z,8.43
2023-04-06T12:31:55.987Z,7.50
2023-04-06T12:34:43.605Z,6.90
2023-04-06T12:37:31.020Z,7.38
2023-04-06T12:40:18.655Z,6.53
2023-04-06T12:43:07.682Z,6.88
2023-04-06T12:45:55.147Z,6.78
2023-04-06T12:48:42.730Z,6.30
2023-04-06T12:51:30.729Z,6.70
2023-04-06T12:54:18.524Z,6.57
2023-04-06T12:57:06.128Z,6.43
2023-04-06T12:59:55.335Z,5.70
2023-04-06T13:02:47.790Z,6.35
2023-04-06T13:05:35.734Z,6.40
2023-04-06T13:08:23.322Z,5.97
2023-04-06T13:11:11.178Z,5.95
2023-04-06T13:13:58.630Z,6.47
2023-04-06T13:16:47.933Z,6.55
2023-04-06T13:19:35.926Z,6.78
2023-04-06T13:22:23.804Z,6.90
2023-04-06T13:25:11.617Z,6.82
2023-04-06T13:27:59.280Z,7.38
2023-04-06T13:30:50.917Z,6.88
2023-04-06T13:33:41.864Z,7.32
2023-04-06T13:36:29.656Z,7.70
2023-04-06T13:39:17.136Z,6.70
2023-04-06T13:42:04.602Z,7.45
2023-04-06T13:44:52.827Z,6.55
2023-04-06T13:47:40.727Z,6.65
2023-04-06T13:50:30.034Z,6.95
2023-04-06T13:53:17.998Z,6.68
2023-04-06T13:56:06.117Z,7.18
2023-04-06T13:58:57.212Z,7.18
2023-04-06T14:01:44.893Z,6.25
2023-04-06T14:04:32.970Z,8.07
2023-04-06T14:07:24.672Z,6.75
2023-04-06T14:10:15.029Z,7.30
2023-04-06T14:13:02.729Z,7.45
2023-04-06T14:15:56.238Z,7.20
2023-04-06T14:18:43.766Z,7.22
2023-04-06T14:21:32.502Z,6.95
2023-04-06T14:24:22.565Z,6.35
2023-04-06T14:27:10.403Z,5.97
2023-04-06T14:29:57.937Z,6.53
2023-04-06T14:32:45.537Z,6.57
2023-04-06T14:35:33.628Z,6.32
2023-04-06T14:38:21.368Z,6.75
2023-04-06T14:41:11.661Z,5.95
2023-04-06T14:43:59.466Z,5.72
2023-04-06T14:46:47.014Z,6.38
2023-04-06T14:49:35.176Z,6.70
2023-04-06T14:52:22.820Z,5.70
2023-04-06T14:55:10.886Z,6.65
2023-04-06T14:57:59.739Z,6.80
2023-04-06T15:00:48.027Z,6.40
2023-04-06T15:03:35.462Z,7.38
2023-04-06T15:06:22.818Z,6.95
2023-04-06T15:09:10.521Z,6.85
2023-04-06T15:11:58.435Z,7.40
2023-04-06T15:14:47.385Z,6.65
2023-04-06T15:17:35.116Z,6.75
2023-04-06T15:20:23.135Z,8.02
2023-04-06T15:23:10.889Z,7.13
2023-04-06T15:25:59.172Z,6.82
2023-04-06T15:28:46.926Z,7.30
2023-04-06T15:31:38.523Z,7.70
2023-04-06T15:34:31.359Z,7.13
2023-04-06T15:37:19.198Z,7.47
2023-04-06T15:40:07.970Z,7.63
2023-04-06T15:42:55.860Z,7.80
2023-04-06T15:45:43.684Z,7.57
2023-04-06T15:48:32.784Z,6.82
2023-04-06T15:51:20.821Z,7.35
2023-04-06T15:54:08.428Z,8.05
2023-04-06T15:56:56.944Z,7.43
2023-04-06T15:59:44.864Z,7.45
2023-04-06T16:02:32.677Z,7.75
2023-04-06T16:05:21.725Z,7.00
2023-04-06T16:08:09.080Z,7.78
2023-04-06T16:10:56.582Z,8.15
2023-04-06T16:13:47.275Z,7.93
2023-04-06T16:16:41.002Z,7.60
2023-04-06T16:19:28.968Z,7.45
2023-04-06T16:22:18.152Z,8.00
2023-04-06T16:25:06.593Z,7.40
2023-04-06T16:27:54.241Z,8.43
2023-04-06T16:30:43.666Z,8.60
2023-04-06T16:33:33.524Z,8.85
2023-04-06T16:36:25.162Z,9.10
2023-04-06T16:39:14.419Z,8.23
2023-04-06T16:42:02.947Z,9.20
2023-04-06T16:44:50.919Z,8.98
2023-04-06T16:47:38.740Z,8.73
2023-04-06T16:50:26.264Z,9.80
2023-04-06T16:53:13.742Z,9.00
2023-04-06T16:56:05.070Z,9.32
2023-04-06T16:58:52.439Z,8.45
2023-04-06T17:01:40.578Z,8.73
2023-04-06T17:04:28.984Z,8.23
2023-04-06T17:07:16.428Z,8.55
2023-04-06T17:10:04.726Z,8.25
2023-04-06T17:12:54.030Z,7.65
2023-04-06T17:15:43.201Z,7.45
2023-04-06T17:18:31.158Z,9.05
2023-04-06T17:21:20.724Z,6.88
2023-04-06T17:24:08.795Z,7.50
2023-04-06T17:26:56.604Z,7.07
2023-04-06T17:29:45.567Z,7.28
2023-04-06T17:32:34.237Z,8.05
2023-04-06T17:35:22.184Z,7.45
2023-04-06T17:38:10.032Z,8.10
2023-04-06T17:40:57.918Z,7.47
2023-04-06T17:43:45.963Z,7.35
2023-04-06T17:46:35.149Z,8.25
2023-04-06T17:49:22.816Z,7.75
2023-04-06T17:52:10.380Z,8.35
2023-04-06T17:54:58.199Z,8.60
2023-04-06T17:57:46.640Z,9.00
2023-04-06T18:00:34.417Z,8.00
2023-04-06T18:03:23.717Z,9.05
2023-04-06T18:06:16.071Z,8.05
2023-04-06T18:09:04.649Z,8.88
2023-04-06T18:11:52.191Z,8.77
2023-04-06T18:14:41.405Z,9.35
2023-04-06T18:17:29.353Z,9.95
2023-04-06T18:20:18.434Z,9.95
2023-04-06T18:23:06.670Z,9.73
2023-04-06T18:25:54.546Z,9.43
2023-04-06T18:28:42.565Z,9.55
2023-04-06T18:31:30.837Z,9.68
2023-04-06T18:34:18.674Z,9.10
2023-04-06T18:37:07.945Z,9.63
2023-04-06T18:39:55.777Z,9.07
2023-04-06T18:42:43.610Z,10.00
2023-04-06T18:45:33.379Z,10.52
2023-04-06T18:48:21.093Z,9.93
2023-04-06T18:51:09.087Z,11.55
2023-04-06T18:53:58.520Z,9.65
2023-04-06T18:56:46.484Z,11.27
2023-04-06T18:59:34.108Z,11.10
2023-04-06T19:02:21.528Z,11.38
2023-04-06T19:05:10.031Z,11.98
2023-04-06T19:07:57.610Z,10.98
2023-04-06T19:10:49.382Z,11.55
2023-04-06T19:13:38.317Z,11.07
2023-04-06T19:16:26.491Z,9.00
2023-04-06T19:19:13.797Z,11.02
2023-04-06T19:22:01.833Z,11.07
2023-04-06T19:24:50.250Z,11.13
2023-04-06T19:27:39.317Z,10.25
2023-04-06T19:30:26.852Z,9.98
2023-04-06T19:33:16.431Z,9.88
2023-04-06T19:36:05.670Z,17.30
2023-04-06T19:38:53.399Z,15.77
2023-04-06T19:41:41.178Z,12.68
2023-04-06T19:44:30.362Z,12.45
2023-04-06T19:47:17.891Z,13.27
2023-04-06T19:50:07.489Z,13.07
2023-04-06T19:52:56.378Z,13.77
2023-04-06T19:55:45.140Z,15.05
2023-04-06T19:58:32.756Z,15.95
2023-04-06T20:01:21.962Z,16.27
2023-04-06T20:04:12.429Z,14.77
2023-04-06T20:07:00.486Z,16.63
2023-04-06T20:09:49.280Z,17.05
2023-04-06T20:12:37.088Z,17.75
2023-04-06T20:15:24.928Z,15.85
2023-04-06T20:18:14.184Z,14.70
2023-04-06T20:21:02.064Z,16.35
2023-04-06T20:23:49.463Z,16.42
2023-04-06T20:26:37.401Z,14.50
2023-04-06T20:29:25.076Z,16.90
2023-04-06T20:32:14.600Z,16.02
2023-04-06T20:35:03.480Z,16.45
2023-04-06T20:37:51.229Z,17.77
2023-04-06T20:40:40.102Z,16.75
2023-04-06T20:43:29.324Z,18.48
2023-04-06T20:46:18.194Z,17.83
2023-04-06T20:49:05.941Z,17.30
2023-04-06T20:51:54.814Z,17.25
2023-04-06T20:54:42.562Z,19.80
2023-04-06T20:57:30.454Z,18.27
2023-04-06T21:00:19.042Z,21.00
2023-04-06T21:03:06.863Z,19.42
2023-04-06T21:05:55.711Z,21.67
2023-04-06T21:08:45.105Z,18.75
2023-04-06T21:11:32.315Z,19.67
2023-04-06T21:14:21.106Z,20.55
2023-04-06T21:17:09.091Z,20.23
2023-04-06T21:19:56.666Z,20.30
2023-04-06T21:22:44.174Z,19.67
2023-04-06T21:25:33.060Z,18.67
2023-04-06T21:28:20.933Z,20.10
2023-04-06T21:31:09.608Z,19.02
2023-04-06T21:33:57.390Z,21.10
2023-04-06T21:36:45.106Z,23.63
2023-04-06T21:39:32.754Z,22.85
2023-04-06T21:42:21.859Z,21.27
2023-04-06T21:45:10.253Z,20.35
2023-04-06T21:47:57.685Z,18.88
2023-04-06T21:50:45.445Z,21.30
2023-04-06T21:53:33.247Z,20.67
2023-04-06T21:56:25.446Z,19.17
2023-04-06T21:59:15.874Z,19.70
2023-04-06T22:02:05.032Z,20.60
2023-04-06T22:04:52.889Z,19.30
2023-04-06T22:07:40.797Z,21.13
2023-04-06T22:10:28.128Z,21.00
2023-04-06T22:13:15.484Z,19.88
2023-04-06T22:16:04.970Z,20.08
2023-04-06T22:18:52.747Z,18.63
2023-04-06T22:21:40.460Z,20.40
2023-04-06T22:24:28.050Z,19.50
2023-04-06T22:27:15.715Z,16.55
2023-04-06T22:30:03.454Z,15.30
2023-04-06T22:32:52.592Z,14.30
2023-04-06T22:35:40.123Z,13.75
2023-04-06T22:38:27.664Z,13.07
2023-04-06T22:41:15.013Z,11.90
2023-04-06T22:44:02.525Z,12.02
2023-04-06T22:46:50.006Z,10.93
2023-04-06T22:49:38.995Z,10.55
2023-04-06T22:52:26.653Z,10.48
2023-04-06T22:55:14.333Z,10.68
2023-04-06T22:58:02.002Z,11.02
2023-04-06T23:00:49.413Z,10.63
2023-04-06T23:03:37.222Z,10.38
2023-04-06T23:06:27.412Z,11.27
2023-04-06T23:09:14.954Z,11.68
2023-04-06T23:12:02.969Z,10.57
2023-04-06T23:14:50.520Z,10.70
2023-04-06T23:17:37.945Z,11.85
2023-04-06T23:20:25.417Z,11.57
2023-04-06T23:23:14.291Z,12.23
2023-04-06T23:26:01.833Z,11.55
2023-04-06T23:28:49.581Z,11.50
2023-04-06T23:31:37.463Z,11.20
2023-04-06T23:34:25.323Z,11.90
2023-04-06T23:37:12.784Z,11.85
2023-04-06T23:40:02.259Z,12.20
2023-04-06T23:42:49.865Z,12.63
2023-04-06T23:45:41.987Z,11.98
2023-04-06T23:48:29.622Z,11.18
2023-04-06T23:51:17.138Z,11.48
2023-04-06T23:54:04.995Z,10.63
2023-04-06T23:56:53.637Z,11.80
2023-04-06T23:59:41.123Z,11.65
